Time;durP1;ratioP1;P1;durP2;ratioP2;P2;SDS_P1;SDS_P2;PMS_P1;PMS_P2;Temp;Humidity;BMP_temperature;BMP_pressure;BME280_temperature;BME280_humidity;BME280_pressure;Samples;Min_cycle;Max_cycle;Signal;HPM_P1;HPM_P2
2021/12/07 00:01:42;;;;;;;24.33;3.83;;;7.50;99.90;;;;;;4961272;28;38107;-75
2021/12/07 00:04:08;;;;;;;22.90;3.67;;;7.60;99.90;;;;;;4965758;28;37632;-75
2021/12/07 00:06:35;;;;;;;26.30;3.60;;;7.70;99.90;;;;;;4948879;28;37248;-76
2021/12/07 00:09:06;;;;;;;27.43;4.27;;;7.80;99.90;;;;;;4968417;28;39621;-75
2021/12/07 00:11:33;;;;;;;19.27;3.30;;;7.80;99.90;;;;;;4957542;28;37255;-75
2021/12/07 00:13:59;;;;;;;14.63;3.03;;;8.00;99.90;;;;;;4955506;28;36919;-75
2021/12/07 00:16:28;;;;;;;24.93;3.10;;;7.90;99.90;;;;;;4962964;28;37306;-75
2021/12/07 00:18:55;;;;;;;21.17;3.20;;;7.90;99.90;;;;;;4962477;28;37956;-76
2021/12/07 00:21:21;;;;;;;19.07;3.60;;;8.00;99.90;;;;;;4966276;28;39277;-76
2021/12/07 00:23:49;;;;;;;17.03;2.73;;;8.00;99.90;;;;;;4966321;28;38187;-76
2021/12/07 00:26:16;;;;;;;22.30;3.13;;;8.20;99.90;;;;;;4951012;28;36375;-76
2021/12/07 00:28:43;;;;;;;29.13;4.67;;;8.30;99.90;;;;;;4943036;28;41427;-76
2021/12/07 00:31:21;;;;;;;18.07;3.60;;;8.30;99.90;;;;;;4965153;28;38716;-75
2021/12/07 00:34:08;;;;;;;14.63;3.40;;;8.30;99.90;;;;;;4952432;28;37284;-77
2021/12/07 00:36:37;;;;;;;18.93;3.17;;;8.30;99.90;;;;;;4943780;28;47252;-76
2021/12/07 00:39:07;;;;;;;18.67;3.03;;;8.20;99.90;;;;;;4942788;28;38158;-74
2021/12/07 00:41:34;;;;;;;18.43;3.07;;;8.20;99.90;;;;;;4943278;28;38796;-75
2021/12/07 00:44:02;;;;;;;19.27;3.23;;;8.10;99.90;;;;;;4961218;28;41650;-76
2021/12/07 00:46:28;;;;;;;18.70;3.47;;;8.10;99.90;;;;;;4942805;28;47430;-75
2021/12/07 00:48:55;;;;;;;23.43;3.70;;;8.10;99.90;;;;;;4959440;28;39181;-75
2021/12/07 00:51:21;;;;;;;16.87;2.90;;;8.10;99.90;;;;;;4958647;28;38268;-75
2021/12/07 00:53:47;;;;;;;20.13;3.27;;;8.00;99.90;;;;;;4945984;28;37188;-76
2021/12/07 00:56:14;;;;;;;18.83;2.70;;;8.10;99.90;;;;;;4941907;28;37112;-77
2021/12/07 00:58:40;;;;;;;14.83;3.10;;;8.00;99.90;;;;;;4945137;28;37695;-76
2021/12/07 01:01:10;;;;;;;20.00;3.00;;;7.80;99.90;;;;;;4945616;28;38031;-76
2021/12/07 01:03:36;;;;;;;21.27;3.03;;;7.80;99.90;;;;;;4947238;28;37579;-78
2021/12/07 01:06:17;;;;;;;21.00;3.30;;;7.70;99.90;;;;;;4966157;28;37114;-78
2021/12/07 01:25:06;;;;;;;18.43;3.07;;;7.70;99.90;;;;;;4966077;28;39622;-77
2021/12/07 01:27:32;;;;;;;14.43;3.30;;;7.80;99.90;;;;;;4954482;28;37253;-75
2021/12/07 01:30:08;;;;;;;18.90;4.40;;;7.90;99.90;;;;;;4966300;28;38710;-76
2021/12/07 01:46:11;;;;;;;20.85;3.17;;;7.90;99.90;;;;;;4928721;28;38529;-76
2021/12/07 01:51:29;;;;;;;20.27;3.50;;;7.80;99.90;;;;;;4929979;28;38818;-75
2021/12/07 01:59:36;;;;;;;19.07;3.33;;;7.70;99.90;;;;;;4928013;28;38020;-75
2021/12/07 02:02:07;;;;;;;19.20;2.90;;;7.80;99.90;;;;;;4936415;28;38464;-76
2021/12/07 02:04:33;;;;;;;19.23;3.27;;;7.80;99.90;;;;;;4928764;28;47283;-75
2021/12/07 02:06:59;;;;;;;17.73;2.80;;;7.80;99.90;;;;;;4924805;28;37154;-75
2021/12/07 02:09:26;;;;;;;14.57;2.97;;;7.70;99.90;;;;;;4924295;28;37175;-76
2021/12/07 02:11:58;;;;;;;21.37;2.80;;;7.70;99.90;;;;;;4924324;28;38966;-75
2021/12/07 02:14:25;;;;;;;13.07;2.60;;;7.80;99.90;;;;;;4935462;28;37312;-75
2021/12/07 02:16:57;;;;;;;15.93;2.57;;;7.80;99.90;;;;;;4926585;28;39120;-75
2021/12/07 02:19:24;;;;;;;16.07;2.30;;;7.70;99.90;;;;;;4927821;28;36302;-75
2021/12/07 02:21:52;;;;;;;19.40;3.20;;;7.60;99.90;;;;;;4927279;28;39830;-76
2021/12/07 02:24:18;;;;;;;17.60;3.03;;;7.60;99.90;;;;;;4926712;28;38310;-76
2021/12/07 02:26:46;;;;;;;18.63;4.07;;;7.60;99.90;;;;;;4929298;28;38122;-76
2021/12/07 02:29:13;;;;;;;16.83;3.17;;;7.60;99.90;;;;;;4923922;28;36289;-74
2021/12/07 02:31:40;;;;;;;20.80;2.90;;;7.70;99.90;;;;;;4918665;28;39551;-75
2021/12/07 02:34:06;;;;;;;17.43;3.10;;;7.70;99.90;;;;;;4920473;28;38237;-76
2021/12/07 02:36:34;;;;;;;18.67;3.43;;;7.50;99.90;;;;;;4927517;28;38269;-76
2021/12/07 02:39:00;;;;;;;25.93;4.97;;;7.50;99.90;;;;;;4926025;28;37787;-76
2021/12/07 02:41:26;;;;;;;15.97;2.67;;;7.40;99.90;;;;;;4937891;28;47292;-76
2021/12/07 02:43:53;;;;;;;21.13;3.73;;;7.50;99.90;;;;;;4957546;28;38192;-75
2021/12/07 02:46:19;;;;;;;15.03;2.33;;;7.60;99.90;;;;;;4957440;28;37188;-77
2021/12/07 02:48:45;;;;;;;14.10;2.47;;;7.70;99.90;;;;;;4960141;28;36020;-76
2021/12/07 02:51:11;;;;;;;21.63;3.27;;;7.80;99.90;;;;;;4939517;28;37917;-76
2021/12/07 02:53:37;;;;;;;11.77;2.03;;;7.80;99.90;;;;;;4952295;28;37595;-76
2021/12/07 02:56:06;;;;;;;19.47;3.13;;;7.80;99.90;;;;;;4944103;28;40114;-76
2021/12/07 02:58:33;;;;;;;14.00;2.43;;;7.90;99.90;;;;;;4963160;28;36399;-76
2021/12/07 03:01:08;;;;;;;9.97;2.53;;;7.90;99.90;;;;;;4946406;28;38074;-76
2021/12/07 03:03:41;;;;;;;11.37;2.80;;;7.90;99.90;;;;;;4951187;28;47618;-76
2021/12/07 03:06:19;;;;;;;14.48;2.70;;;8.00;99.90;;;;;;4962166;28;38423;-77
2021/12/07 03:27:58;;;;;;;21.00;2.60;;;7.80;99.90;;;;;;4961052;28;39573;-76
2021/12/07 03:30:25;;;;;;;11.40;2.77;;;7.70;99.90;;;;;;4947278;28;37453;-76
2021/12/07 03:32:51;;;;;;;14.37;2.63;;;7.70;99.90;;;;;;4946175;28;37593;-76
2021/12/07 03:35:18;;;;;;;13.63;2.00;;;7.70;99.90;;;;;;4961055;28;38323;-76
2021/12/07 03:37:44;;;;;;;16.03;2.57;;;7.70;99.90;;;;;;4955074;28;38217;-76
2021/12/07 03:40:12;;;;;;;18.27;2.93;;;7.80;99.90;;;;;;4959034;28;37821;-76
2021/12/07 03:42:38;;;;;;;12.93;2.53;;;7.80;99.90;;;;;;4941702;28;38272;-76
2021/12/07 03:45:08;;;;;;;13.20;3.60;;;7.80;99.90;;;;;;4942931;28;37933;-77
2021/12/07 03:47:35;;;;;;;12.50;2.33;;;7.80;99.90;;;;;;4939167;28;38024;-77
2021/12/07 03:50:01;;;;;;;14.50;2.33;;;7.80;99.90;;;;;;4945294;28;37977;-77
2021/12/07 03:52:27;;;;;;;16.07;3.20;;;7.80;99.90;;;;;;4941222;28;39090;-76
2021/12/07 03:54:53;;;;;;;13.73;2.33;;;7.70;99.90;;;;;;4937782;28;37031;-76
2021/12/07 03:57:19;;;;;;;11.57;2.57;;;7.80;99.90;;;;;;4945753;28;37772;-76
2021/12/07 03:59:45;;;;;;;23.13;4.73;;;7.70;99.90;;;;;;4948787;28;37163;-75
2021/12/07 04:02:11;;;;;;;15.93;2.07;;;7.60;99.90;;;;;;4948230;28;37640;-76
2021/12/07 04:04:38;;;;;;;13.33;2.70;;;7.60;99.90;;;;;;4946297;28;38603;-76
2021/12/07 04:07:05;;;;;;;15.60;2.57;;;7.50;99.90;;;;;;4947141;28;38172;-76
2021/12/07 04:09:32;;;;;;;14.20;2.50;;;7.60;99.90;;;;;;4938206;28;37118;-76
2021/12/07 04:11:59;;;;;;;15.97;3.10;;;7.60;99.90;;;;;;4946813;28;38385;-76
2021/12/07 04:14:26;;;;;;;13.27;2.10;;;7.50;99.90;;;;;;4940291;28;37166;-76
2021/12/07 04:16:52;;;;;;;10.87;2.47;;;7.50;99.90;;;;;;4950957;28;36768;-76
2021/12/07 04:19:19;;;;;;;11.43;2.20;;;7.50;99.90;;;;;;4951444;28;37222;-76
2021/12/07 04:21:45;;;;;;;13.60;2.53;;;7.40;99.90;;;;;;4943925;28;37930;-76
2021/12/07 04:24:11;;;;;;;13.23;2.67;;;7.40;99.90;;;;;;4950962;28;39039;-75
2021/12/07 04:26:38;;;;;;;13.63;3.83;;;7.40;99.90;;;;;;4947622;28;37872;-76
2021/12/07 04:29:04;;;;;;;10.13;1.63;;;7.50;99.90;;;;;;4950133;28;37293;-77
2021/12/07 04:31:30;;;;;;;10.87;2.00;;;7.50;99.90;;;;;;4943535;28;39586;-75
2021/12/07 04:33:57;;;;;;;16.13;2.13;;;7.60;99.90;;;;;;4946955;28;39221;-76
2021/12/07 04:36:23;;;;;;;11.93;2.00;;;7.50;99.90;;;;;;4945120;28;38123;-76
2021/12/07 04:38:49;;;;;;;9.30;2.20;;;7.30;99.90;;;;;;4947428;28;37936;-76
2021/12/07 04:41:15;;;;;;;10.00;1.83;;;7.20;99.90;;;;;;4944570;28;39336;-76
2021/12/07 04:43:42;;;;;;;16.83;3.13;;;7.10;99.90;;;;;;4958342;28;39317;-76
2021/12/07 04:46:17;;;;;;;11.17;2.30;;;7.00;99.90;;;;;;4963855;28;37660;-76
2021/12/07 04:59:42;;;;;;;14.50;2.17;;;7.00;99.90;;;;;;4955000;28;49532;-77
2021/12/07 05:02:08;;;;;;;10.07;2.27;;;7.00;99.90;;;;;;4961793;28;38711;-76
2021/12/07 05:04:36;;;;;;;15.13;1.83;;;7.00;99.90;;;;;;4961858;28;37135;-76
2021/12/07 05:07:16;;;;;;;15.70;2.30;;;6.90;99.90;;;;;;4960751;28;37964;-76
2021/12/07 05:12:26;;;;;;;12.43;2.10;;;6.80;99.90;;;;;;4964509;28;39996;-76
2021/12/07 05:15:00;;;;;;;12.87;2.17;;;6.80;99.90;;;;;;4964208;28;38963;-76
2021/12/07 05:38:56;;;;;;;12.77;2.20;;;6.50;99.90;;;;;;4962033;28;38965;-76
2021/12/07 05:41:25;;;;;;;14.63;2.10;;;6.40;99.90;;;;;;4959550;28;36889;-76
2021/12/07 05:43:52;;;;;;;12.00;2.20;;;6.40;99.90;;;;;;4942369;28;38953;-76
2021/12/07 05:46:18;;;;;;;15.83;2.43;;;6.30;99.90;;;;;;4941867;28;37245;-76
2021/12/07 05:48:44;;;;;;;11.93;1.87;;;6.20;99.90;;;;;;4943152;28;37012;-75
2021/12/07 05:51:10;;;;;;;9.57;1.90;;;6.20;99.90;;;;;;4946651;28;35948;-75
2021/12/07 05:53:36;;;;;;;11.37;1.80;;;6.20;99.90;;;;;;4960988;28;36832;-75
2021/12/07 05:56:03;;;;;;;9.50;1.57;;;6.10;99.90;;;;;;4942072;28;37855;-75
2021/12/07 05:58:29;;;;;;;11.87;2.17;;;6.10;99.90;;;;;;4947637;28;38360;-76
2021/12/07 06:00:57;;;;;;;10.10;2.00;;;6.00;99.90;;;;;;4955190;28;36631;-76
2021/12/07 06:03:25;;;;;;;10.43;2.07;;;5.90;99.90;;;;;;4943276;28;39650;-75
2021/12/07 06:05:53;;;;;;;14.23;2.17;;;5.90;99.90;;;;;;4957868;28;39255;-75
2021/12/07 06:08:19;;;;;;;12.63;2.33;;;5.80;99.90;;;;;;4953795;28;37064;-75
2021/12/07 06:10:46;;;;;;;8.20;1.70;;;5.90;99.90;;;;;;4954318;28;37264;-77
2021/12/07 06:13:12;;;;;;;11.63;1.73;;;6.00;99.90;;;;;;4962859;28;38625;-76
2021/12/07 06:15:43;;;;;;;10.73;1.87;;;6.00;99.90;;;;;;4951959;28;38774;-75
2021/12/07 06:18:09;;;;;;;16.80;2.03;;;6.00;99.90;;;;;;4934834;28;37386;-76
2021/12/07 06:20:35;;;;;;;10.23;2.00;;;5.80;99.90;;;;;;4940792;28;38615;-75
2021/12/07 06:23:02;;;;;;;14.60;1.93;;;5.70;99.90;;;;;;4972742;28;39809;-75
2021/12/07 06:25:30;;;;;;;10.37;1.60;;;5.60;99.90;;;;;;4949475;28;46525;-76
2021/12/07 06:27:56;;;;;;;10.60;1.67;;;5.50;99.90;;;;;;4960735;28;38955;-76
2021/12/07 06:30:22;;;;;;;13.20;1.93;;;5.40;99.90;;;;;;4953555;28;35732;-75
2021/12/07 06:32:48;;;;;;;13.87;2.27;;;5.40;99.90;;;;;;4964526;28;39836;-77
2021/12/07 06:35:14;;;;;;;14.20;2.63;;;5.40;99.90;;;;;;4962298;28;38643;-77
2021/12/07 06:37:40;;;;;;;15.27;3.00;;;5.40;99.90;;;;;;4962882;28;37850;-76
2021/12/07 06:40:10;;;;;;;14.40;3.13;;;5.30;99.90;;;;;;4952630;28;36340;-76
2021/12/07 06:42:38;;;;;;;17.87;2.60;;;5.30;99.90;;;;;;4951594;28;38750;-77
2021/12/07 06:45:13;;;;;;;20.97;3.17;;;5.30;99.90;;;;;;4958525;28;39843;-76
2021/12/07 06:47:40;;;;;;;20.13;3.70;;;5.30;99.90;;;;;;4956499;28;39119;-76
2021/12/07 06:50:09;;;;;;;12.60;2.10;;;5.30;99.90;;;;;;4933624;28;36209;-76
2021/12/07 06:52:35;;;;;;;14.10;2.60;;;5.30;99.90;;;;;;4943399;28;40335;-76
2021/12/07 06:55:03;;;;;;;27.07;3.73;;;5.30;99.90;;;;;;4937391;28;39938;-76
2021/12/07 06:57:29;;;;;;;10.90;2.13;;;5.30;99.90;;;;;;4962117;28;38399;-76
2021/12/07 06:59:55;;;;;;;17.93;3.20;;;5.20;99.90;;;;;;4949244;28;38094;-76
2021/12/07 07:02:21;;;;;;;19.00;2.47;;;5.20;99.90;;;;;;4952819;28;38606;-76
2021/12/07 07:04:47;;;;;;;16.93;2.53;;;5.10;99.90;;;;;;4949654;28;39238;-76
2021/12/07 07:07:13;;;;;;;12.53;2.60;;;5.00;99.90;;;;;;4962402;28;39183;-76
2021/12/07 07:09:39;;;;;;;10.17;2.10;;;5.00;99.90;;;;;;4951226;28;39152;-77
2021/12/07 07:12:06;;;;;;;13.63;2.77;;;4.90;99.90;;;;;;4964445;28;39108;-77
2021/12/07 07:14:32;;;;;;;19.20;2.97;;;4.90;99.90;;;;;;4971407;28;39522;-76
2021/12/07 07:16:58;;;;;;;17.23;2.90;;;4.80;99.90;;;;;;4959515;28;38973;-76
2021/12/07 07:19:24;;;;;;;13.90;2.73;;;4.70;99.90;;;;;;4963543;28;38293;-76
2021/12/07 07:21:51;;;;;;;14.93;2.20;;;4.60;99.90;;;;;;4968043;28;38793;-76
2021/12/07 07:24:17;;;;;;;16.63;3.33;;;4.60;99.90;;;;;;4948384;28;38511;-77
2021/12/07 07:26:43;;;;;;;18.73;3.17;;;4.50;99.90;;;;;;4947222;28;38742;-76
2021/12/07 07:29:09;;;;;;;28.33;3.30;;;4.40;99.90;;;;;;4952702;28;39156;-76
2021/12/07 07:31:40;;;;;;;8.87;2.47;;;4.30;99.90;;;;;;4957377;28;39058;-76
2021/12/07 07:34:06;;;;;;;14.47;2.33;;;4.30;99.90;;;;;;4960779;28;37412;-76
2021/12/07 07:36:32;;;;;;;15.03;2.23;;;4.20;99.90;;;;;;4964450;28;38218;-78
2021/12/07 07:38:58;;;;;;;19.53;3.10;;;4.30;99.90;;;;;;4964306;28;38045;-78
2021/12/07 07:41:24;;;;;;;19.23;2.90;;;4.30;99.90;;;;;;4962480;28;38686;-77
2021/12/07 07:43:52;;;;;;;19.27;2.50;;;4.40;99.90;;;;;;4962884;28;38123;-78
2021/12/07 07:46:19;;;;;;;25.50;3.37;;;4.40;99.90;;;;;;4961229;28;38179;-77
2021/12/07 07:48:46;;;;;;;15.33;2.80;;;4.50;99.90;;;;;;4964464;28;37012;-77
2021/12/07 07:51:12;;;;;;;19.07;2.90;;;4.50;99.90;;;;;;4955736;28;39565;-77
2021/12/07 07:53:38;;;;;;;21.83;2.80;;;4.50;99.90;;;;;;4950919;28;38147;-77
2021/12/07 07:56:05;;;;;;;17.93;3.03;;;4.60;99.90;;;;;;4943947;28;38360;-78
2021/12/07 07:58:31;;;;;;;11.93;2.07;;;4.50;99.90;;;;;;4951668;28;37276;-77
2021/12/07 08:00:57;;;;;;;20.47;3.93;;;4.40;99.90;;;;;;4944493;28;38514;-77
2021/12/07 08:03:23;;;;;;;12.40;2.43;;;4.40;99.90;;;;;;4940693;28;37704;-76
2021/12/07 08:05:49;;;;;;;23.00;2.30;;;4.40;99.90;;;;;;4943977;28;38002;-77
2021/12/07 08:08:16;;;;;;;15.47;3.43;;;4.40;99.90;;;;;;4950185;28;38495;-77
2021/12/07 08:10:42;;;;;;;19.90;3.17;;;4.40;99.90;;;;;;4947018;28;39285;-77
2021/12/07 08:13:08;;;;;;;18.87;3.20;;;4.50;99.90;;;;;;4948057;28;38636;-78
2021/12/07 08:15:41;;;;;;;17.30;3.53;;;4.70;99.90;;;;;;4935229;28;39110;-77
2021/12/07 08:18:08;;;;;;;15.73;3.17;;;4.80;99.90;;;;;;4954515;28;38121;-77
2021/12/07 08:20:37;;;;;;;19.87;2.97;;;4.90;99.90;;;;;;4947083;28;39913;-78
2021/12/07 08:23:04;;;;;;;15.83;2.57;;;5.00;99.90;;;;;;4959892;28;39659;-77
2021/12/07 08:25:37;;;;;;;16.30;3.00;;;5.10;99.90;;;;;;4957934;28;38215;-78
2021/12/07 08:28:07;;;;;;;17.67;4.80;;;5.10;99.90;;;;;;4948954;28;38886;-78
2021/12/07 08:30:35;;;;;;;16.53;3.03;;;5.10;99.90;;;;;;4954523;28;37886;-77
2021/12/07 08:33:10;;;;;;;13.33;3.30;;;5.10;99.90;;;;;;4956554;28;38955;-77
2021/12/07 08:35:36;;;;;;;16.97;3.57;;;5.10;99.90;;;;;;4967466;28;39088;-77
2021/12/07 08:38:04;;;;;;;26.23;4.37;;;5.10;99.90;;;;;;4954835;28;37534;-77
2021/12/07 08:40:32;;;;;;;20.40;4.73;;;5.10;99.90;;;;;;4953787;28;39820;-78
2021/12/07 08:42:59;;;;;;;23.90;5.30;;;5.00;99.90;;;;;;4964589;28;38651;-77
2021/12/07 08:45:27;;;;;;;23.87;4.63;;;5.00;99.90;;;;;;4958009;28;38970;-77
2021/12/07 08:47:54;;;;;;;21.30;5.73;;;5.00;99.90;;;;;;4971971;28;37217;-76
2021/12/07 08:50:24;;;;;;;25.70;6.90;;;5.00;99.90;;;;;;4952856;28;38720;-77
2021/12/07 08:52:52;;;;;;;23.57;6.67;;;5.10;99.90;;;;;;4976260;28;39782;-79
2021/12/07 09:00:49;;;;;;;20.90;6.10;;;5.10;99.90;;;;;;4964165;28;39250;-77
2021/12/07 09:03:16;;;;;;;17.90;6.63;;;5.10;99.90;;;;;;4962564;28;38527;-76
2021/12/07 09:05:42;;;;;;;20.07;6.37;;;5.10;99.90;;;;;;4966111;28;38947;-78
2021/12/07 09:08:08;;;;;;;26.73;7.70;;;5.10;99.90;;;;;;4949984;28;38119;-77
2021/12/07 09:10:34;;;;;;;26.70;7.03;;;5.10;99.90;;;;;;4962328;28;39981;-77
2021/12/07 09:13:01;;;;;;;22.73;7.70;;;5.00;99.90;;;;;;4963352;28;20051;-77
2021/12/07 09:15:28;;;;;;;27.53;6.63;;;5.00;99.90;;;;;;4961529;28;37992;-77
2021/12/07 09:17:54;;;;;;;28.07;7.50;;;5.00;99.90;;;;;;4956066;28;35910;-76
2021/12/07 09:20:21;;;;;;;23.87;7.37;;;5.10;99.90;;;;;;4967028;28;38606;-76
2021/12/07 09:22:47;;;;;;;34.13;7.73;;;5.10;99.90;;;;;;4966086;28;38652;-78
2021/12/07 09:25:15;;;;;;;26.63;6.90;;;5.10;99.90;;;;;;4965823;28;38069;-76
2021/12/07 09:27:41;;;;;;;21.47;7.47;;;5.10;99.90;;;;;;4948231;28;36081;-76
2021/12/07 09:30:10;;;;;;;25.47;7.10;;;5.20;99.90;;;;;;4958388;28;38799;-77
2021/12/07 09:32:36;;;;;;;22.67;6.90;;;5.30;99.90;;;;;;4937440;28;39799;-78
2021/12/07 09:35:06;;;;;;;31.30;6.97;;;5.30;99.90;;;;;;4950919;28;38935;-78
2021/12/07 09:37:32;;;;;;;24.83;7.20;;;5.40;99.90;;;;;;4942001;28;47304;-76
2021/12/07 09:39:59;;;;;;;20.47;6.17;;;5.40;99.90;;;;;;4967393;28;39484;-76
2021/12/07 09:42:25;;;;;;;34.40;7.57;;;5.40;99.90;;;;;;4953771;28;38425;-77
2021/12/07 09:44:51;;;;;;;26.57;6.83;;;5.50;99.90;;;;;;4957032;28;38425;-79
2021/12/07 09:47:17;;;;;;;26.37;6.50;;;5.50;99.90;;;;;;4958538;28;37043;-78
2021/12/07 09:49:44;;;;;;;21.07;6.47;;;5.50;99.90;;;;;;4949634;28;39861;-76
2021/12/07 09:52:11;;;;;;;30.27;8.50;;;5.60;99.90;;;;;;4961180;28;38322;-77
2021/12/07 09:54:37;;;;;;;25.23;7.93;;;5.60;99.90;;;;;;4963066;28;38143;-77
2021/12/07 09:57:04;;;;;;;34.30;10.00;;;5.60;99.90;;;;;;4961784;28;37085;-77
2021/12/07 09:59:31;;;;;;;43.83;11.23;;;5.60;99.90;;;;;;4947941;28;39617;-78
2021/12/07 10:01:57;;;;;;;38.40;11.87;;;5.60;99.90;;;;;;4952601;28;39203;-78
2021/12/07 10:04:27;;;;;;;45.63;11.33;;;5.70;99.90;;;;;;4950423;28;39687;-78
2021/12/07 10:06:54;;;;;;;39.20;10.97;;;5.70;99.90;;;;;;4957351;28;37188;-77
2021/12/07 10:09:21;;;;;;;42.53;12.03;;;5.80;99.90;;;;;;4964585;28;40424;-78
2021/12/07 10:11:54;;;;;;;46.20;11.97;;;5.80;99.90;;;;;;4968214;28;38072;-79
2021/12/07 10:14:20;;;;;;;;;;;5.80;99.90;;;;;;4959723;28;38260;-78
2021/12/07 10:16:49;;;;;;;45.17;11.43;;;5.90;99.90;;;;;;4945372;28;37811;-77
2021/12/07 10:19:29;;;;;;;36.77;9.93;;;5.90;99.90;;;;;;4952358;28;38440;-78
2021/12/07 10:22:16;;;;;;;38.77;9.77;;;6.00;99.90;;;;;;4952951;28;37586;-77
2021/12/07 10:24:55;;;;;;;31.77;9.53;;;6.00;99.90;;;;;;4960589;28;47202;-78
2021/12/07 10:27:39;;;;;;;41.30;12.13;;;6.00;99.90;;;;;;4949057;28;36226;-77
2021/12/07 10:30:16;;;;;;;42.03;10.10;;;6.10;99.90;;;;;;4966076;28;37639;-77
2021/12/07 10:32:55;;;;;;;37.27;11.23;;;6.10;99.90;;;;;;4939600;28;48053;-77
2021/12/07 10:35:34;;;;;;;33.97;9.27;;;6.10;99.90;;;;;;4956431;28;38116;-78
2021/12/07 10:38:15;;;;;;;39.37;11.53;;;6.20;99.90;;;;;;4950457;28;38304;-77
2021/12/07 10:41:02;;;;;;;45.17;11.70;;;6.10;99.90;;;;;;4962235;28;49222;-77
2021/12/07 10:43:48;;;;;;;46.10;11.13;;;6.10;99.90;;;;;;4930419;28;48540;-77
2021/12/07 10:46:25;;;;;;;49.10;10.30;;;6.20;99.90;;;;;;4947232;28;38218;-78
2021/12/07 10:49:06;;;;;;;52.00;12.10;;;6.20;99.90;;;;;;4949405;28;38161;-77
2021/12/07 10:51:32;;;;;;;58.80;11.93;;;6.30;99.90;;;;;;4960530;28;48936;-77
2021/12/07 10:53:58;;;;;;;56.40;13.40;;;6.30;99.90;;;;;;4966699;28;38548;-76
2021/12/07 10:56:31;;;;;;;48.40;11.80;;;6.40;99.90;;;;;;4969124;28;37909;-77
2021/12/07 10:59:10;;;;;;;47.53;11.47;;;6.40;99.90;;;;;;4965347;28;38224;-77
2021/12/07 11:01:43;;;;;;;44.40;10.77;;;6.50;99.90;;;;;;4944540;28;47205;-77
2021/12/07 11:04:35;;;;;;;45.77;12.73;;;6.50;99.90;;;;;;4964330;28;38323;-77
2021/12/07 11:07:31;;;;;;;76.63;18.27;;;6.70;99.90;;;;;;4962765;28;39205;-77
2021/12/07 11:10:39;;;;;;;93.30;23.27;;;6.70;99.90;;;;;;4964983;28;38059;-76
2021/12/07 11:13:16;;;;;;;89.20;21.63;;;6.80;99.90;;;;;;4874713;28;48914;-76
2021/12/07 11:15:58;;;;;;;83.80;20.73;;;6.90;99.90;;;;;;4871425;29;40163;-76
2021/12/07 11:18:29;;;;;;;69.93;17.90;;;6.90;99.90;;;;;;4926820;28;38080;-77
2021/12/07 11:21:00;;;;;;;69.07;16.53;;;7.00;99.90;;;;;;4964091;28;37212;-76
2021/12/07 11:23:30;;;;;;;51.13;11.73;;;7.00;99.90;;;;;;4951434;28;39678;-77
2021/12/07 11:31:27;;;;;;;17.77;4.40;;;7.00;99.90;;;;;;4968561;28;47579;-77
2021/12/07 11:34:03;;;;;;;13.97;4.53;;;7.00;99.90;;;;;;4952132;28;38135;-76
2021/12/07 11:36:34;;;;;;;12.60;4.57;;;7.00;99.90;;;;;;4964750;28;47565;-77
2021/12/07 11:39:17;;;;;;;18.77;4.33;;;7.00;99.90;;;;;;4961291;28;38834;-77
2021/12/07 11:41:48;;;;;;;14.68;3.92;;;7.00;99.90;;;;;;4962270;28;47392;-76
2021/12/07 11:44:14;;;;;;;12.37;3.63;;;6.90;99.90;;;;;;4965552;28;39301;-77
2021/12/07 11:46:47;;;;;;;14.50;3.73;;;7.00;99.90;;;;;;4958650;28;38463;-76
2021/12/07 11:49:15;;;;;;;13.60;2.97;;;7.00;99.90;;;;;;4957620;28;37732;-76
2021/12/07 11:51:43;;;;;;;13.33;3.20;;;7.00;99.90;;;;;;4964028;28;37477;-76
2021/12/07 11:54:10;;;;;;;14.17;3.07;;;7.00;99.90;;;;;;4957616;28;39423;-77
2021/12/07 11:56:37;;;;;;;9.63;2.87;;;7.00;99.90;;;;;;4965228;28;39344;-76
2021/12/07 11:59:04;;;;;;;8.57;2.70;;;7.00;99.90;;;;;;4956175;28;39843;-76
2021/12/07 12:01:30;;;;;;;11.13;3.10;;;7.00;99.90;;;;;;4954220;28;37768;-76
2021/12/07 12:03:56;;;;;;;16.47;3.53;;;6.90;99.90;;;;;;4965345;28;38866;-75
2021/12/07 12:06:22;;;;;;;15.70;2.83;;;6.90;99.90;;;;;;4948825;28;39014;-75
2021/12/07 12:08:50;;;;;;;9.23;2.50;;;6.90;99.90;;;;;;4956981;28;39529;-75
2021/12/07 12:11:21;;;;;;;18.87;3.17;;;6.90;99.90;;;;;;4951563;28;38247;-76
2021/12/07 12:14:26;;;;;;;8.70;2.70;;;6.90;99.90;;;;;;4941004;28;40726;-76
2021/12/07 12:17:28;;;;;;;9.73;2.83;;;7.00;99.90;;;;;;4949205;28;48611;-75
2021/12/07 12:20:08;;;;;;;16.90;3.93;;;7.00;99.90;;;;;;4909315;28;47337;-76
2021/12/07 12:22:44;;;;;;;12.57;5.03;;;7.10;99.90;;;;;;4954943;28;48510;-76
2021/12/07 12:25:15;;;;;;;23.63;4.90;;;7.10;99.90;;;;;;4955668;28;39560;-75
2021/12/07 12:27:43;;;;;;;16.37;5.27;;;7.10;99.90;;;;;;4945563;28;39057;-75
2021/12/07 12:30:24;;;;;;;32.30;6.67;;;7.10;99.90;;;;;;4944137;28;39120;-76
2021/12/07 12:33:16;;;;;;;17.80;4.90;;;7.20;99.90;;;;;;4961970;28;39434;-75
2021/12/07 12:35:49;;;;;;;16.55;4.57;;;7.10;99.90;;;;;;4943857;28;49482;-76
2021/12/07 12:38:22;;;;;;;23.03;4.80;;;7.00;99.90;;;;;;4959746;28;39882;-76
2021/12/07 12:41:00;;;;;;;18.80;5.17;;;7.00;99.90;;;;;;4961190;28;38646;-77
2021/12/07 12:43:45;;;;;;;16.23;4.73;;;7.10;99.90;;;;;;4962917;28;38991;-77
2021/12/07 12:46:23;;;;;;;16.40;4.27;;;7.00;99.90;;;;;;4952659;28;40231;-78
2021/12/07 12:48:55;;;;;;;16.63;3.97;;;7.10;99.90;;;;;;4946703;28;39321;-77
2021/12/07 12:51:28;;;;;;;19.50;4.03;;;7.00;99.90;;;;;;4927773;28;39922;-76
2021/12/07 12:53:55;;;;;;;16.73;3.90;;;7.10;99.90;;;;;;4948109;28;37710;-76
2021/12/07 12:56:23;;;;;;;15.67;4.13;;;7.10;99.90;;;;;;4964056;28;39845;-77
2021/12/07 12:58:53;;;;;;;21.70;4.07;;;7.10;99.90;;;;;;4949988;28;38527;-76
2021/12/07 13:01:23;;;;;;;18.80;4.13;;;7.10;99.90;;;;;;4946926;28;39652;-77
2021/12/07 13:04:13;;;;;;;18.07;3.97;;;7.10;99.90;;;;;;4941990;28;37641;-77
2021/12/07 13:06:54;;;;;;;10.73;3.40;;;7.10;99.90;;;;;;4947581;28;48878;-76
2021/12/07 13:09:20;;;;;;;17.37;3.50;;;7.20;99.90;;;;;;4957426;28;38058;-76
2021/12/07 13:12:02;;;;;;;12.57;3.07;;;7.20;99.90;;;;;;4957469;28;39341;-76
2021/12/07 13:14:36;;;;;;;21.73;3.80;;;7.20;99.90;;;;;;4964574;28;49028;-77
2021/12/07 13:17:42;;;;;;;13.33;3.30;;;7.20;99.90;;;;;;4960693;28;39604;-75
2021/12/07 13:20:14;;;;;;;14.50;3.27;;;7.20;99.90;;;;;;4898619;28;39297;-76
2021/12/07 13:22:56;;;;;;;15.60;3.63;;;7.20;99.90;;;;;;4937912;28;38677;-75
2021/12/07 13:25:25;;;;;;;15.52;3.10;;;7.20;99.90;;;;;;4955218;28;38088;-76
2021/12/07 13:28:14;;;;;;;12.77;3.83;;;7.20;99.90;;;;;;4961093;28;38749;-75
2021/12/07 13:30:49;;;;;;;11.17;3.10;;;7.10;99.90;;;;;;4939818;28;47241;-76
2021/12/07 13:33:35;;;;;;;12.87;3.60;;;7.10;99.90;;;;;;4956887;28;38241;-76
2021/12/07 13:36:27;;;;;;;15.97;3.83;;;7.10;99.90;;;;;;4959135;28;36706;-76
2021/12/07 13:38:53;;;;;;;17.20;3.00;;;7.10;99.90;;;;;;4941411;28;48016;-76
2021/12/07 13:41:21;;;;;;;16.43;3.70;;;7.10;99.90;;;;;;4950469;28;38919;-76
2021/12/07 13:43:50;;;;;;;16.83;3.43;;;7.10;99.90;;;;;;4946201;28;39307;-76
2021/12/07 13:46:20;;;;;;;14.67;3.67;;;7.10;99.90;;;;;;4953180;28;38513;-77
2021/12/07 13:48:49;;;;;;;18.67;3.87;;;7.10;99.90;;;;;;4958181;28;38653;-76
2021/12/07 13:51:18;;;;;;;19.30;3.90;;;7.10;99.90;;;;;;4941497;28;37201;-76
2021/12/07 13:53:45;;;;;;;15.83;3.67;;;7.10;99.90;;;;;;4940411;28;38753;-76
2021/12/07 13:56:11;;;;;;;11.83;3.93;;;7.10;99.90;;;;;;4944217;28;37874;-76
2021/12/07 13:58:53;;;;;;;17.07;4.43;;;7.10;99.90;;;;;;4947923;28;38619;-77
2021/12/07 14:01:19;;;;;;;18.53;4.10;;;7.10;99.90;;;;;;4949310;28;39226;-76
2021/12/07 14:03:46;;;;;;;16.40;4.10;;;7.10;99.90;;;;;;4960067;28;38716;-76
2021/12/07 14:06:13;;;;;;;14.87;3.63;;;7.10;99.90;;;;;;4956991;28;36971;-77
2021/12/07 14:08:39;;;;;;;14.80;4.03;;;7.00;99.90;;;;;;4951948;28;37520;-76
2021/12/07 14:11:05;;;;;;;18.83;3.57;;;7.00;99.90;;;;;;4944328;28;37385;-77
2021/12/07 14:13:31;;;;;;;13.23;3.00;;;7.00;99.90;;;;;;4968106;28;37983;-76
2021/12/07 14:15:57;;;;;;;18.73;4.33;;;7.00;99.90;;;;;;4957318;28;37944;-77
2021/12/07 14:18:26;;;;;;;16.30;3.03;;;7.00;99.90;;;;;;4956990;28;40221;-76
2021/12/07 14:20:58;;;;;;;18.73;3.23;;;7.00;99.90;;;;;;4943445;28;38917;-76
2021/12/07 14:23:29;;;;;;;11.20;3.00;;;7.00;99.90;;;;;;4947406;28;39028;-76
2021/12/07 14:26:07;;;;;;;17.07;3.00;;;6.90;99.90;;;;;;4943147;28;38143;-76
2021/12/07 14:28:53;;;;;;;15.93;3.33;;;6.90;99.90;;;;;;4936102;28;47421;-76
2021/12/07 14:31:27;;;;;;;18.40;3.20;;;6.90;99.90;;;;;;4937442;28;39793;-75
2021/12/07 14:34:02;;;;;;;16.53;3.07;;;6.80;99.90;;;;;;4940843;28;39967;-76
2021/12/07 14:36:46;;;;;;;21.83;4.10;;;6.80;99.90;;;;;;4933906;28;47853;-77
2021/12/07 14:39:17;;;;;;;18.93;3.90;;;6.80;99.90;;;;;;4963264;28;38771;-75
2021/12/07 14:41:49;;;;;;;17.47;3.67;;;6.80;99.90;;;;;;4941151;28;39205;-76
2021/12/07 14:44:19;;;;;;;16.48;2.80;;;6.80;99.90;;;;;;4945740;28;37418;-77